• Join FlightAware (Why Join?)
  • Login
  • US Flag 
04:26PM EDT


 

Airport Tracker/Info


-or-


 

Live Flight TrackerFlight Track Log ✈ AAY894 ✈ 17-Apr-2014 ✈ KPIE - KIAG

Flight Track Log - Related Links

Times and Time Zones

All times are in EDT time to prevent confusion due to time zone crossing. See the AAY894 flight status page for this flight to view local times or setup timezone preferences in your user account.

Time Position Orientation Groundspeed Altitude Reporting Facility
EDT Latitude Longitude Course Direction KTS MPH feet Rate Location/Type
09:08AM 27.9333 -82.7000 16° North 184 212 800  Level Tampa TRACON
09:09AM 27.9833 -82.6833 16° North 214 246 2,200 2,040 Climbing Tampa TRACON
09:12AM 28.2706 -82.6050 14° North 296 341 11,000 2,160 Climbing Jacksonville Center
09:13AM 28.3833 -82.5811 11° North 353 406 13,000 2,100 Climbing Jacksonville Center
09:14AM 28.4772 -82.5856 358° North 354 407 15,300 2,040 Climbing Jacksonville Center
09:15AM 28.5858 -82.5969 355° North 375 432 17,100 1,860 Climbing Jacksonville Center
09:16AM 28.7172 -82.6014 358° North 406 467 19,100 1,800 Climbing Jacksonville Center
09:17AM 28.8383 -82.6081 357° North 417 480 20,700 1,500 Climbing Jacksonville Center
09:18AM 28.9614 -82.6125 358° North 429 494 22,100 1,500 Climbing Jacksonville Center
09:19AM 29.0908 -82.6144 359° North 441 507 23,800 1,800 Climbing Jacksonville Center
09:20AM 29.2203 -82.6167 359° North 454 522 25,700 1,740 Climbing Jacksonville Center
09:21AM 29.3517 -82.6161 360° North 461 531 27,300 1,680 Climbing Jacksonville Center
09:22AM 29.4769 -82.6158 360° North 456 525 29,100 1,560 Climbing Jacksonville Center
09:23AM 29.6022 -82.6108 North 451 519 30,500 900 Climbing Jacksonville Center
09:24AM 29.7275 -82.6008 North 451 519 31,000 180 Climbing Jacksonville Center
09:25AM 29.8569 -82.5933 North 456 525 30,900 -60 Descending Jacksonville Center
09:26AM 29.9842 -82.5833 North 456 525 30,900  Level Jacksonville Center
09:27AM 30.0969 -82.5806 North 456 525 30,900  Level Jacksonville Center
09:28AM 30.2222 -82.5728 North 456 525 30,900  Level Jacksonville Center
09:29AM 30.3497 -82.5581 North 456 525 31,000  Climbing Jacksonville Center
09:30AM 30.4769 -82.5406 North 461 531 30,900 -60 Descending Jacksonville Center
09:31AM 30.6042 -82.5258 North 461 531 30,900  Level Jacksonville Center
09:32AM 30.7336 -82.5131 North 461 531 30,900  Level Jacksonville Center
09:33AM 30.8631 -82.4933 North 461 531 30,900  Level Jacksonville Center
09:34AM 30.9903 -82.4783 North 461 531 30,900  Level Jacksonville Center
09:35AM 31.1178 -82.4631 North 461 531 30,900  Level Jacksonville Center
09:36AM 31.2450 -82.4478 North 461 531 30,900  Level Jacksonville Center
09:37AM 31.3847 -82.4253 North 461 531 31,000  Climbing Jacksonville Center
09:38AM 31.5142 -82.4075 North 461 531 31,000  Level Jacksonville Center
09:39AM 31.6311 -82.3922 North 461 531 31,000  Level Jacksonville Center
09:41AM 31.7917 -82.3750 North 464 534 31,000  Level Atlanta Center
09:42AM 31.9208 -82.3578 North 464 534 31,000  Level Atlanta Center
09:43AM 32.0481 -82.3408 North 464 534 31,000  Level Atlanta Center
09:44AM 32.1772 -82.3236 North 464 534 31,000 300 Level Atlanta Center
09:45AM 32.3125 -82.3014 North 459 528 31,600 780 Climbing Atlanta Center
09:46AM 32.4417 -82.2864 North 459 528 32,600 660 Climbing Atlanta Center
09:47AM 32.5689 -82.2692 North 459 528 33,000 180 Climbing Atlanta Center
09:48AM 32.6978 -82.2492 North 459 528 33,000  Level Atlanta Center
09:49AM 32.8228 -82.2344 North 459 528 33,000  Level Atlanta Center
09:50AM 32.9519 -82.2169 North 464 534 33,000  Level Atlanta Center
09:51AM 33.0769 -82.1994 North 464 534 33,000  Level Atlanta Center
09:52AM 33.2042 -82.1817 North 464 534 33,000  Level Atlanta Center
09:53AM 33.3311 -82.1642 North 464 534 33,000  Level Atlanta Center
09:54AM 33.4603 -82.1464 North 464 534 33,000  Level Atlanta Center
09:55AM 33.5853 -82.1286 North 464 534 33,000  Level Atlanta Center
09:56AM 33.6997 -82.1136 North 464 534 33,000  Level Atlanta Center
09:57AM 33.8289 -82.0933 North 464 534 33,000  Level Atlanta Center
09:58AM 33.9561 -82.0778 North 464 534 33,000  Level Atlanta Center
09:59AM 34.0850 -82.0597 North 464 534 33,000  Level Atlanta Center
10:00AM 34.2122 -82.0442 North 464 534 33,000  Level Atlanta Center
10:01AM 34.3392 -82.0261 North 464 534 33,000  Level Atlanta Center
10:02AM 34.4683 -82.0081 North 464 534 33,000  Level Atlanta Center
10:03AM 34.5953 -81.9922 North 464 534 33,000  Level Atlanta Center
10:04AM 34.7244 -81.9714 North 464 534 33,000  Level Atlanta Center
10:05AM 34.8533 -81.9531 North 464 534 33,000  Level Atlanta Center
10:06AM 34.9806 -81.9397 North 459 528 33,000  Level Atlanta Center
10:07AM 35.1094 -81.9111 10° North 464 534 33,000  Level Atlanta Center
10:08AM 35.2361 -81.8747 13° North 464 534 33,000  Level Atlanta Center
10:09AM 35.3628 -81.8383 13° North 464 534 33,000  Level Atlanta Center
10:10AM 35.4997 -81.7989 13° North 464 534 33,000  Level Atlanta Center
10:11AM 35.6283 -81.7622 13° North 469 540 33,000  Level Atlanta Center
10:12AM 35.7528 -81.7256 13° North 462 532 33,000  Level Atlanta Center
10:13AM 35.8794 -81.6886 13° North 462 532 33,000  Level Atlanta Center
10:14AM 36.0039 -81.6517 14° North 462 532 33,000  Level Atlanta Center
10:15AM 36.1303 -81.6144 13° North 462 532 33,000  Level Atlanta Center
10:16AM 36.2525 -81.5800 13° North 462 532 33,000  Level Atlanta Center
10:17AM 36.3769 -81.5453 13° North 462 532 33,000  Level Atlanta Center
10:18AM 36.5033 -81.5025 15° North 457 526 33,000  Level Atlanta Center
10:19AM 36.6278 -81.4675 13° North 457 526 33,000  Level Atlanta Center
10:20AM 36.7561 -81.4269 14° North 462 532 33,000  Level Atlanta Center
10:21AM 36.9008 -81.3858 13° North 466 536 33,000  Level Indianapolis Center
10:22AM 37.0339 -81.3478 13° North 467 537 33,000  Level Indianapolis Center
10:23AM 37.1600 -81.3094 14° North 468 539 33,000  Level Indianapolis Center
10:24AM 37.2994 -81.2689 13° North 468 539 33,000  Level Indianapolis Center
10:25AM 37.4244 -81.2322 13° North 468 539 33,000  Level Indianapolis Center
10:26AM 37.5483 -81.1931 14° North 468 539 33,000  Level Indianapolis Center
10:27AM 37.6744 -81.1561 13° North 471 542 33,000  Level Indianapolis Center
10:28AM 37.8236 -81.1111 13° North 471 542 33,000  Level Indianapolis Center
10:29AM 37.9497 -81.0747 13° North 471 542 33,000  Level Indianapolis Center
10:30AM 38.0783 -81.0378 13° North 471 542 33,000  Level Indianapolis Center
10:31AM 38.2067 -81.0006 13° North 471 542 33,000  Level Indianapolis Center
10:32AM 38.3361 -80.9644 12° North 473 544 33,000  Level Indianapolis Center
10:33AM 38.4906 -80.9186 13° North 474 545 33,000  Level Indianapolis Center
10:34AM 38.6194 -80.8794 13° North 474 545 33,000  Level Indianapolis Center
10:35AM 38.7489 -80.8428 12° North 477 549 33,000  Level Indianapolis Center
10:36AM 38.8781 -80.8047 13° North 477 549 33,000  Level Indianapolis Center
10:37AM 39.0083 -80.7653 13° North 478 550 33,000  Level Indianapolis Center
10:38AM 39.1650 -80.7181 13° North 479 551 33,000  Level Indianapolis Center
10:39AM 39.2961 -80.6786 13° North 480 552 33,000  Level Indianapolis Center
10:40AM 39.3833 -80.6536 12° North 480 552 33,000  Level Cleveland Center
10:41AM 39.5325 -80.6089 13° North 481 554 33,000  Level Cleveland Center
10:42AM 39.6653 -80.5703 13° North 484 557 33,000  Level Cleveland Center
10:43AM 39.7969 -80.5294 13° North 483 556 33,000  Level Cleveland Center
10:44AM 39.9317 -80.4892 13° North 484 557 33,000  Level Cleveland Center
10:45AM 40.0622 -80.4475 14° North 484 557 33,000  Level Cleveland Center
10:46AM 40.1931 -80.4075 13° North 483 556 33,000  Level Cleveland Center
10:47AM 40.3472 -80.3581 14° North 485 558 33,000 -840 Level Cleveland Center
10:49AM 40.4808 -80.3169 13° North 485 558 31,300 -1,020 Descending Cleveland Center
10:50AM 40.6125 -80.2781 13° North 485 558 31,000 -180 Descending Cleveland Center
10:51AM 40.7431 -80.2367 14° North 483 556 31,000  Level Cleveland Center
10:52AM 40.8719 -80.1767 19° North 486 559 31,000  Level Cleveland Center
10:53AM 40.9933 -80.0897 28° Northeast 493 567 31,000 -240 Level Cleveland Center
10:54AM 41.1361 -79.9878 28° Northeast 495 570 30,600 -1,020 Descending Cleveland Center
10:55AM 41.2567 -79.9000 29° Northeast 495 570 29,000 -1,740 Descending Cleveland Center
10:56AM 41.3744 -79.8139 29° Northeast 490 564 27,100 -1,980 Descending Cleveland Center
10:57AM 41.4956 -79.7261 28° Northeast 490 564 24,900 -1,500 Descending Cleveland Center
10:58AM 41.6147 -79.6378 29° Northeast 490 564 24,000 -480 Descending Cleveland Center
10:59AM 41.7358 -79.5481 29° Northeast 494 568 24,000  Level Cleveland Center
11:00AM 41.8794 -79.4419 29° Northeast 492 566 24,000  Level Cleveland Center
11:01AM 41.9994 -79.3528 29° Northeast 493 567 24,000 -420 Level Cleveland Center
11:02AM 42.1264 -79.2975 18° North 479 551 23,200 -1,500 Descending Cleveland Center
11:03AM 42.2422 -79.2581 14° North 430 495 21,000 -2,400 Descending Cleveland Center
11:04AM 42.3481 -79.2197 15° North 397 457 18,300 -2,760 Descending Cleveland Center
11:05AM 42.4631 -79.1772 15° North 379 436 15,300 -3,060 Descending Cleveland Center
11:06AM 42.5628 -79.1394 16° North 377 434 12,000 -2,160 Descending Cleveland Center
11:07AM 42.6611 -79.1042 15° North 367 422 10,900 -1,020 Descending Cleveland Center
11:08AM 42.7658 -79.0675 14° North 336 387 9,900 -960 Descending Cleveland Center
11:09AM 42.8544 -79.0353 15° North 320 368 9,000 -1,200 Descending Cleveland Center
11:10AM 42.9394 -79.0056 14° North 307 353 7,500 -1,620 Descending Cleveland Center
11:11AM 43.0133 -78.9789 15° North 292 336 5,700 -1,680 Descending Cleveland Center
11:12AM 43.0819 -78.9539 15° North 253 291 4,100 -1,320 Descending Cleveland Center
11:13AM 43.1236 -78.9850 331° Northwest 203 234 3,000 -1,140 Descending Cleveland Center
11:14AM 43.1019 -79.0192 229° Southwest 165 190 1,800 -960 Descending Cleveland Center
11:15AM 43.1172 -78.9800 62° Northeast 152 175 1,100 -720 Descending Cleveland Center
11:17AM 43.1076 -78.9458 90° East  Level Estimated